createdAt,value
2018-05-02T00:00:49.113Z,0.00
2018-05-02T00:02:41.931Z,0.00
2018-05-02T00:03:41.875Z,0.00
2018-05-02T00:05:34.901Z,0.00
2018-05-02T00:06:34.841Z,0.00
2018-05-02T00:08:27.835Z,0.00
2018-05-02T00:09:27.852Z,0.00
2018-05-02T00:11:21.124Z,0.00
2018-05-02T00:12:20.971Z,0.00
2018-05-02T00:14:13.943Z,0.00
2018-05-02T00:15:13.900Z,0.00
2018-05-02T00:17:06.727Z,0.00
2018-05-02T00:18:06.680Z,0.00
2018-05-02T00:19:59.892Z,0.00
2018-05-02T00:20:59.856Z,0.00
2018-05-02T00:22:52.847Z,0.00
2018-05-02T00:23:52.799Z,0.00
2018-05-02T00:25:46.135Z,0.00
2018-05-02T00:26:45.973Z,0.00
2018-05-02T00:28:39.087Z,0.00
2018-05-02T00:29:38.938Z,0.00
2018-05-02T00:31:31.941Z,0.00
2018-05-02T00:32:31.886Z,0.00
2018-05-02T00:34:24.713Z,0.00
2018-05-02T00:35:24.657Z,0.00
2018-05-02T00:37:17.735Z,0.00
2018-05-02T00:38:17.656Z,0.00
2018-05-02T00:40:10.458Z,0.00
2018-05-02T00:41:10.427Z,0.00
2018-05-02T00:43:03.910Z,0.00
2018-05-02T00:44:03.787Z,0.00
2018-05-02T00:45:56.858Z,0.00
2018-05-02T00:46:56.742Z,0.00
2018-05-02T00:48:49.752Z,0.00
2018-05-02T00:49:49.688Z,0.00
2018-05-02T00:51:42.657Z,0.00
2018-05-02T00:52:42.450Z,0.00
2018-05-02T00:54:35.443Z,0.00
2018-05-02T00:55:35.397Z,0.00
2018-05-02T00:57:28.231Z,0.00
2018-05-02T00:58:28.161Z,0.00
2018-05-02T01:00:21.183Z,0.00
2018-05-02T01:01:21.116Z,0.00
2018-05-02T01:03:14.266Z,0.00
2018-05-02T01:04:14.111Z,0.00
2018-05-02T01:06:06.927Z,0.00
2018-05-02T01:07:06.897Z,0.00
2018-05-02T01:08:59.897Z,0.00
2018-05-02T01:09:59.888Z,0.00
2018-05-02T01:11:52.640Z,0.00
2018-05-02T01:12:52.601Z,0.00
2018-05-02T01:14:45.578Z,0.00
2018-05-02T01:15:45.421Z,0.00
2018-05-02T01:17:38.427Z,0.00
2018-05-02T01:18:38.362Z,0.00
2018-05-02T01:20:31.161Z,0.00
2018-05-02T01:21:31.121Z,0.00
2018-05-02T01:23:24.137Z,0.00
2018-05-02T01:24:24.072Z,0.00
2018-05-02T01:26:16.983Z,0.00
2018-05-02T01:27:16.945Z,0.00
2018-05-02T01:29:09.981Z,0.00
2018-05-02T01:30:09.913Z,0.00
2018-05-02T01:32:02.892Z,0.00
2018-05-02T01:33:02.854Z,0.00
2018-05-02T01:34:56.072Z,0.00
2018-05-02T01:35:55.992Z,0.00
2018-05-02T01:37:49.006Z,0.00
2018-05-02T01:38:49.031Z,0.00
2018-05-02T01:40:42.289Z,0.00
2018-05-02T01:41:42.107Z,0.00
2018-05-02T01:43:35.091Z,0.00
2018-05-02T01:44:35.045Z,0.00
2018-05-02T01:46:28.034Z,0.00
2018-05-02T01:47:27.994Z,0.00
2018-05-02T01:49:20.790Z,0.00
2018-05-02T01:50:20.728Z,0.00
2018-05-02T01:52:13.553Z,0.00
2018-05-02T01:53:13.515Z,0.00
2018-05-02T01:55:06.498Z,0.00
2018-05-02T01:56:06.449Z,0.00
2018-05-02T01:57:59.455Z,0.00
2018-05-02T01:58:59.448Z,0.00
2018-05-02T02:00:52.670Z,0.00
2018-05-02T02:01:52.579Z,0.00
2018-05-02T02:03:45.647Z,0.00
2018-05-02T02:04:45.638Z,0.00
2018-05-02T02:06:38.942Z,0.00
2018-05-02T02:07:38.768Z,0.00
2018-05-02T02:09:31.774Z,0.00
2018-05-02T02:10:31.723Z,0.00
2018-05-02T02:12:24.519Z,0.00
2018-05-02T02:13:24.504Z,0.00
2018-05-02T02:15:17.728Z,0.00
2018-05-02T02:16:17.646Z,0.00
2018-05-02T02:18:10.629Z,0.00
2018-05-02T02:19:10.593Z,0.00
2018-05-02T02:21:03.894Z,0.00
2018-05-02T02:22:03.741Z,0.00
2018-05-02T02:23:56.745Z,0.00
2018-05-02T02:24:56.700Z,0.00
2018-05-02T02:26:49.769Z,0.00
2018-05-02T02:27:49.689Z,0.00
2018-05-02T02:29:42.526Z,0.00
2018-05-02T02:30:42.472Z,0.00
2018-05-02T02:32:35.504Z,0.00
2018-05-02T02:33:35.429Z,0.00
2018-05-02T02:35:28.445Z,0.00
2018-05-02T02:36:28.464Z,0.00
2018-05-02T02:38:21.620Z,0.00
2018-05-02T02:39:21.545Z,0.00
2018-05-02T02:41:14.355Z,0.00
2018-05-02T02:42:14.300Z,0.00
2018-05-02T02:44:07.304Z,0.00
2018-05-02T02:45:07.266Z,0.00
2018-05-02T02:47:00.111Z,0.00
2018-05-02T02:48:00.026Z,0.00
2018-05-02T02:49:52.969Z,0.00
2018-05-02T02:50:52.869Z,0.00
2018-05-02T02:52:45.887Z,0.00
2018-05-02T02:53:45.837Z,0.00
2018-05-02T02:55:38.873Z,0.00
2018-05-02T02:56:38.826Z,0.00
2018-05-02T02:58:31.745Z,0.00
2018-05-02T02:59:31.695Z,0.00
2018-05-02T03:01:24.691Z,0.00
2018-05-02T03:02:24.641Z,0.00
2018-05-02T03:04:17.687Z,0.00
2018-05-02T03:05:17.642Z,0.00
2018-05-02T03:07:10.840Z,0.00
2018-05-02T03:08:10.742Z,0.00
2018-05-02T03:10:03.551Z,0.00
2018-05-02T03:11:03.515Z,0.00
2018-05-02T03:12:56.684Z,0.00
2018-05-02T03:13:56.629Z,0.00
2018-05-02T03:15:49.686Z,0.00
2018-05-02T03:16:49.489Z,0.00
2018-05-02T03:18:42.529Z,0.00
2018-05-02T03:19:42.461Z,0.00
2018-05-02T03:21:35.505Z,0.00
2018-05-02T03:22:35.457Z,0.00
2018-05-02T03:24:28.410Z,0.00
2018-05-02T03:25:28.280Z,0.00
2018-05-02T03:27:21.282Z,0.00
2018-05-02T03:28:21.225Z,0.00
2018-05-02T03:30:14.034Z,0.00
2018-05-02T03:31:13.971Z,0.00
2018-05-02T03:33:06.803Z,0.00
2018-05-02T03:34:06.734Z,0.00
2018-05-02T03:35:59.949Z,0.00
2018-05-02T03:36:59.886Z,0.00
2018-05-02T03:38:52.916Z,4.00
2018-05-02T03:39:52.861Z,4.00
2018-05-02T03:41:45.855Z,4.00
2018-05-02T03:42:45.805Z,4.00
2018-05-02T03:44:38.726Z,4.00
2018-05-02T03:45:38.621Z,8.00
2018-05-02T03:47:31.614Z,12.00
2018-05-02T03:48:31.574Z,8.00
2018-05-02T03:50:24.395Z,16.00
2018-05-02T03:51:24.339Z,16.00
2018-05-02T03:53:17.755Z,16.00
2018-05-02T03:54:17.677Z,20.00
2018-05-02T03:56:10.711Z,28.00
2018-05-02T03:57:10.655Z,28.00
2018-05-02T03:59:03.844Z,40.00
2018-05-02T04:00:03.795Z,40.00
2018-05-02T04:01:56.850Z,52.00
2018-05-02T04:02:56.775Z,60.00
2018-05-02T04:04:49.776Z,68.00
2018-05-02T04:05:49.730Z,80.00
2018-05-02T04:07:42.784Z,92.00
2018-05-02T04:08:42.631Z,100.00
2018-05-02T04:10:35.420Z,116.00
2018-05-02T04:11:35.344Z,124.00
2018-05-02T04:13:28.375Z,144.00
2018-05-02T04:14:28.305Z,156.00
2018-05-02T04:16:21.376Z,184.00
2018-05-02T04:17:21.311Z,196.00
2018-05-02T04:19:14.384Z,220.00
2018-05-02T04:20:14.340Z,232.00
2018-05-02T04:22:07.407Z,260.00
2018-05-02T04:23:07.396Z,272.00
2018-05-02T04:25:00.584Z,304.00
2018-05-02T04:26:00.571Z,316.00
2018-05-02T04:27:53.542Z,352.00
2018-05-02T04:28:53.492Z,364.00
2018-05-02T04:30:46.766Z,384.00
2018-05-02T04:31:46.653Z,396.00
2018-05-02T04:33:39.667Z,428.00
2018-05-02T04:34:39.625Z,440.00
2018-05-02T04:36:32.651Z,460.00
2018-05-02T04:37:32.616Z,468.00
2018-05-02T04:39:25.648Z,492.00
2018-05-02T04:40:25.418Z,500.00
2018-05-02T04:42:18.457Z,520.00
2018-05-02T04:43:18.381Z,532.00
2018-05-02T04:45:11.186Z,552.00
2018-05-02T04:46:11.131Z,564.00
2018-05-02T04:48:04.487Z,588.00
2018-05-02T04:49:04.250Z,604.00
2018-05-02T04:50:57.244Z,624.00
2018-05-02T04:51:57.205Z,636.00
2018-05-02T04:53:50.217Z,656.00
2018-05-02T04:54:50.160Z,672.00
2018-05-02T04:56:43.461Z,688.00
2018-05-02T04:57:43.423Z,692.00
2018-05-02T04:59:36.268Z,712.00
2018-05-02T05:00:36.176Z,724.00
2018-05-02T05:02:28.978Z,740.00
2018-05-02T05:03:28.958Z,756.00
2018-05-02T05:05:22.223Z,784.00
2018-05-02T05:06:22.133Z,804.00
2018-05-02T05:08:15.123Z,840.00
2018-05-02T05:09:15.076Z,840.00
2018-05-02T05:11:07.909Z,872.00
2018-05-02T05:12:07.930Z,892.00
2018-05-02T05:14:01.048Z,912.00
2018-05-02T05:15:00.970Z,928.00
2018-05-02T05:16:53.994Z,968.00
2018-05-02T05:17:53.936Z,980.00
2018-05-02T05:19:46.861Z,1000.00
2018-05-02T05:20:46.796Z,1008.00
2018-05-02T05:22:39.598Z,1032.00
2018-05-02T05:23:39.547Z,1044.00
2018-05-02T05:25:33.377Z,1068.00
2018-05-02T05:26:32.530Z,1076.00
2018-05-02T05:28:25.513Z,1096.00
2018-05-02T05:29:26.851Z,1104.00
2018-05-02T05:31:18.852Z,1120.00
2018-05-02T05:32:18.777Z,1132.00
2018-05-02T05:34:11.782Z,1148.00
2018-05-02T05:35:11.774Z,1156.00
2018-05-02T05:37:04.851Z,1172.00
2018-05-02T05:38:06.027Z,1180.00
2018-05-02T05:39:57.641Z,1196.00
2018-05-02T05:40:57.554Z,1200.00
2018-05-02T05:42:50.584Z,1224.00
2018-05-02T05:43:51.878Z,1232.00
2018-05-02T05:45:43.804Z,1248.00
2018-05-02T05:46:43.697Z,1256.00
2018-05-02T05:48:36.712Z,1272.00
2018-05-02T05:49:36.645Z,1280.00
2018-05-02T05:51:29.686Z,1296.00
2018-05-02T05:52:29.618Z,1304.00
2018-05-02T05:54:23.050Z,1324.00
2018-05-02T05:55:22.430Z,1332.00
2018-05-02T05:57:15.444Z,1344.00
2018-05-02T05:58:15.382Z,1356.00
2018-05-02T06:00:08.387Z,1368.00
2018-05-02T06:01:08.358Z,1376.00
2018-05-02T06:03:01.576Z,1392.00
2018-05-02T06:04:01.498Z,1400.00
2018-05-02T06:05:54.336Z,1416.00
2018-05-02T06:06:54.255Z,1424.00
2018-05-02T06:08:47.290Z,1440.00
2018-05-02T06:09:47.236Z,1444.00
2018-05-02T06:11:40.483Z,1460.00
2018-05-02T06:12:40.456Z,1468.00
2018-05-02T06:14:33.500Z,1484.00
2018-05-02T06:15:33.517Z,1492.00
2018-05-02T06:17:26.648Z,1508.00
2018-05-02T06:18:26.568Z,1516.00
2018-05-02T06:20:19.365Z,1532.00
2018-05-02T06:21:19.328Z,1540.00
2018-05-02T06:23:12.348Z,1552.00
2018-05-02T06:24:12.296Z,1560.00
2018-05-02T06:26:05.525Z,1576.00
2018-05-02T06:27:05.470Z,1584.00
2018-05-02T06:28:58.525Z,1600.00
2018-05-02T06:29:58.558Z,1612.00
2018-05-02T06:31:51.742Z,1628.00
2018-05-02T06:32:51.591Z,1636.00
2018-05-02T06:34:44.596Z,1648.00
2018-05-02T06:35:44.564Z,1660.00
2018-05-02T06:37:37.476Z,1672.00
2018-05-02T06:38:37.379Z,1680.00
2018-05-02T06:40:30.575Z,1688.00
2018-05-02T06:41:30.530Z,1700.00
2018-05-02T06:43:23.599Z,1720.00
2018-05-02T06:44:23.661Z,1732.00
2018-05-02T06:46:16.720Z,1744.00
2018-05-02T06:47:16.648Z,1756.00
2018-05-02T06:49:09.686Z,1776.00
2018-05-02T06:50:09.616Z,1788.00
2018-05-02T06:52:02.626Z,1812.00
2018-05-02T06:53:02.571Z,1828.00
2018-05-02T06:54:55.398Z,1848.00
2018-05-02T06:55:55.349Z,1860.00
2018-05-02T06:57:48.360Z,1876.00
2018-05-02T06:58:48.313Z,1888.00
2018-05-02T07:00:41.347Z,1916.00
2018-05-02T07:01:41.317Z,1924.00
2018-05-02T07:03:34.537Z,1940.00
2018-05-02T07:04:34.436Z,1960.00
2018-05-02T07:06:27.464Z,1988.00
2018-05-02T07:07:27.413Z,1992.00
2018-05-02T07:09:20.226Z,2000.00
2018-05-02T07:10:20.167Z,2008.00
2018-05-02T07:12:13.415Z,2036.00
2018-05-02T07:13:13.364Z,2052.00
2018-05-02T07:15:06.396Z,2088.00
2018-05-02T07:16:06.443Z,2104.00
2018-05-02T07:17:59.611Z,2128.00
2018-05-02T07:18:59.494Z,2136.00
2018-05-02T07:20:52.545Z,2172.00
2018-05-02T07:21:52.650Z,2196.00
2018-05-02T07:23:45.843Z,2240.00
2018-05-02T07:24:45.664Z,2264.00
2018-05-02T07:26:38.691Z,2344.00
2018-05-02T07:27:38.647Z,2372.00
2018-05-02T07:29:31.664Z,2412.00
2018-05-02T07:30:31.605Z,2392.00
2018-05-02T07:32:24.691Z,2420.00
2018-05-02T07:33:24.655Z,2508.00
2018-05-02T07:35:17.695Z,2584.00
2018-05-02T07:36:17.719Z,2604.00
2018-05-02T07:38:11.163Z,2660.00
2018-05-02T07:39:11.099Z,2712.00
2018-05-02T07:41:03.950Z,2732.00
2018-05-02T07:42:04.002Z,2768.00
2018-05-02T07:43:57.706Z,2868.00
2018-05-02T07:44:57.022Z,2904.00
2018-05-02T07:46:50.109Z,2980.00
2018-05-02T07:47:51.344Z,2996.00
2018-05-02T07:49:43.322Z,3156.00
2018-05-02T07:50:43.212Z,3216.00
2018-05-02T07:52:36.439Z,3216.00
2018-05-02T07:53:36.435Z,3208.00
2018-05-02T07:55:30.694Z,3220.00
2018-05-02T07:56:29.540Z,3268.00
2018-05-02T07:58:22.611Z,3436.00
2018-05-02T07:59:22.576Z,3628.00
2018-05-02T08:01:15.862Z,3676.00
2018-05-02T08:02:15.745Z,3380.00
2018-05-02T08:04:08.821Z,3208.00
2018-05-02T08:05:08.863Z,3204.00
2018-05-02T08:07:01.987Z,3376.00
2018-05-02T08:08:01.893Z,3516.00
2018-05-02T08:09:54.730Z,3880.00
2018-05-02T08:10:55.248Z,4004.00
2018-05-02T08:12:47.472Z,4308.00
2018-05-02T08:13:47.448Z,4296.00
2018-05-02T08:15:40.453Z,3912.00
2018-05-02T08:16:40.400Z,4252.00
2018-05-02T08:18:33.231Z,4688.00
2018-05-02T08:19:33.199Z,4684.00
2018-05-02T08:21:26.207Z,5028.00
2018-05-02T08:22:26.141Z,4772.00
2018-05-02T08:24:19.108Z,4372.00
2018-05-02T08:25:19.102Z,4496.00
2018-05-02T08:27:12.441Z,5096.00
2018-05-02T08:28:12.401Z,5048.00
2018-05-02T08:30:05.269Z,5220.00
2018-05-02T08:31:05.229Z,5152.00
2018-05-02T08:32:58.121Z,4780.00
2018-05-02T08:33:58.011Z,5652.00
2018-05-02T08:35:51.310Z,5096.00
2018-05-02T08:36:51.187Z,4884.00
2018-05-02T08:38:44.245Z,5196.00
2018-05-02T08:39:44.180Z,4968.00
2018-05-02T08:41:37.397Z,5480.00
2018-05-02T08:42:37.331Z,5352.00
2018-05-02T08:44:30.341Z,5560.00
2018-05-02T08:45:30.309Z,5804.00
2018-05-02T08:47:23.344Z,5644.00
2018-05-02T08:48:23.289Z,5860.00
2018-05-02T08:50:16.298Z,5540.00
2018-05-02T08:51:16.161Z,5700.00
2018-05-02T08:53:09.218Z,5676.00
2018-05-02T08:54:09.177Z,5264.00
2018-05-02T08:56:02.170Z,5980.00
2018-05-02T08:57:03.483Z,6176.00
2018-05-02T08:58:54.997Z,5428.00
2018-05-02T08:59:54.948Z,6324.00
2018-05-02T09:01:47.872Z,6640.00
2018-05-02T09:02:48.268Z,6328.00
2018-05-02T09:04:41.542Z,7148.00
2018-05-02T09:05:40.708Z,6944.00
2018-05-02T09:07:35.020Z,7108.00
2018-05-02T09:08:33.813Z,7540.00
2018-05-02T09:10:26.633Z,7048.00
2018-05-02T09:11:27.139Z,7128.00
2018-05-02T09:13:19.434Z,6644.00
2018-05-02T09:14:19.386Z,6468.00
2018-05-02T09:16:12.394Z,5948.00
2018-05-02T09:17:12.378Z,6576.00
2018-05-02T09:19:05.228Z,6472.00
2018-05-02T09:20:05.150Z,5960.00
2018-05-02T09:21:58.053Z,5296.00
2018-05-02T09:22:57.948Z,5284.00
2018-05-02T09:24:50.988Z,5332.00
2018-05-02T09:25:50.939Z,5428.00
2018-05-02T09:27:43.945Z,5248.00
2018-05-02T09:28:43.928Z,5272.00
2018-05-02T09:30:37.001Z,5132.00
2018-05-02T09:31:36.882Z,5104.00
2018-05-02T09:33:29.903Z,5084.00
2018-05-02T09:34:29.864Z,5044.00
2018-05-02T09:36:22.865Z,5120.00
2018-05-02T09:37:22.827Z,5196.00
2018-05-02T09:39:15.733Z,5232.00
2018-05-02T09:40:15.662Z,5212.00
2018-05-02T09:42:08.686Z,5228.00
2018-05-02T09:43:08.651Z,5300.00
2018-05-02T09:45:01.672Z,5420.00
2018-05-02T09:46:01.624Z,5504.00
2018-05-02T09:47:54.438Z,5672.00
2018-05-02T09:48:54.403Z,5860.00
2018-05-02T09:50:47.378Z,7612.00
2018-05-02T09:51:47.314Z,26560.00
2018-05-02T09:53:40.348Z,45568.00
2018-05-02T09:54:40.335Z,46624.00
2018-05-02T09:56:33.578Z,49984.00
2018-05-02T09:57:33.454Z,51008.00
2018-05-02T09:59:26.450Z,51584.00
2018-05-02T10:00:26.417Z,50176.00
2018-05-02T10:02:19.566Z,45824.00
2018-05-02T10:03:19.512Z,44448.00
2018-05-02T10:05:12.513Z,47648.00
2018-05-02T10:06:12.489Z,50624.00
2018-05-02T10:08:05.563Z,57888.00
2018-05-02T10:09:05.521Z,62944.00
2018-05-02T10:10:58.439Z,63264.00
2018-05-02T10:11:58.403Z,60800.00
2018-05-02T10:13:51.438Z,55936.00
2018-05-02T10:14:51.389Z,56640.00
2018-05-02T10:16:44.403Z,51520.00
2018-05-02T10:17:44.390Z,52320.00
2018-05-02T10:19:37.316Z,54368.00
2018-05-02T10:20:37.292Z,54880.00
2018-05-02T10:22:30.289Z,39616.00
2018-05-02T10:23:30.238Z,61152.00
2018-05-02T10:25:23.267Z,65312.00
2018-05-02T10:26:23.326Z,59584.00
2018-05-02T10:28:16.090Z,65888.00
2018-05-02T10:29:16.070Z,64128.00
2018-05-02T10:31:09.088Z,65280.00
2018-05-02T10:32:09.043Z,64160.00
2018-05-02T10:34:02.089Z,15280.00
2018-05-02T10:35:02.069Z,49504.00
2018-05-02T10:36:54.932Z,78848.00
2018-05-02T10:37:54.874Z,79168.00
2018-05-02T10:39:47.723Z,80160.00
2018-05-02T10:40:47.699Z,83808.00
2018-05-02T10:42:40.729Z,85152.00
2018-05-02T10:43:40.701Z,86848.00
2018-05-02T10:45:33.718Z,93408.00
2018-05-02T10:46:33.704Z,93664.00
2018-05-02T10:48:26.741Z,95008.00
2018-05-02T10:49:26.571Z,98880.00
2018-05-02T10:51:19.435Z,103776.00
2018-05-02T10:52:19.386Z,106528.00
2018-05-02T10:54:12.415Z,107328.00
2018-05-02T10:55:12.414Z,108768.00
2018-05-02T10:57:05.280Z,92416.00
2018-05-02T10:58:05.204Z,91360.00
2018-05-02T10:59:58.297Z,82240.00
2018-05-02T11:00:58.264Z,74752.00
2018-05-02T11:02:51.357Z,66272.00
2018-05-02T11:03:51.314Z,66080.00
2018-05-02T11:05:44.465Z,63360.00
2018-05-02T11:06:44.460Z,62912.00
2018-05-02T11:08:37.581Z,63680.00
2018-05-02T11:09:37.546Z,64064.00
2018-05-02T11:11:32.078Z,57504.00
2018-05-02T11:12:30.348Z,55488.00
2018-05-02T11:14:23.386Z,48512.00
2018-05-02T11:15:23.335Z,43744.00
2018-05-02T11:17:16.363Z,40096.00
2018-05-02T11:18:16.359Z,32480.00
2018-05-02T11:20:09.409Z,26624.00
2018-05-02T11:21:09.326Z,21408.00
2018-05-02T11:23:02.163Z,28320.00
2018-05-02T11:24:02.139Z,27136.00
2018-05-02T11:25:55.244Z,28096.00
2018-05-02T11:26:55.179Z,24128.00
2018-05-02T11:28:48.388Z,22304.00
2018-05-02T11:29:48.321Z,20416.00
2018-05-02T11:31:41.335Z,23680.00
2018-05-02T11:32:41.421Z,22016.00
2018-05-02T11:34:34.166Z,19616.00
2018-05-02T11:35:34.126Z,17792.00
2018-05-02T11:37:27.014Z,16864.00
2018-05-02T11:38:26.978Z,18144.00
2018-05-02T11:40:20.021Z,19680.00
2018-05-02T11:41:19.985Z,19552.00
2018-05-02T11:43:13.025Z,21088.00
2018-05-02T11:44:12.979Z,19936.00
2018-05-02T11:46:06.081Z,19136.00
2018-05-02T11:47:05.918Z,21440.00
2018-05-02T11:48:58.965Z,19072.00
2018-05-02T11:49:58.935Z,16640.00
2018-05-02T11:51:52.293Z,13992.00
2018-05-02T11:52:52.149Z,13936.00
2018-05-02T11:54:44.992Z,13668.00
2018-05-02T11:55:44.950Z,13064.00
2018-05-02T11:57:37.985Z,11756.00
2018-05-02T11:58:37.975Z,13040.00
2018-05-02T12:00:30.886Z,12904.00
2018-05-02T12:01:30.757Z,13704.00
2018-05-02T12:03:23.601Z,15212.00
2018-05-02T12:04:23.580Z,16576.00
2018-05-02T12:06:16.597Z,15496.00
2018-05-02T12:07:16.545Z,14552.00
2018-05-02T12:09:09.559Z,17600.00
2018-05-02T12:10:09.528Z,17312.00
2018-05-02T12:12:02.641Z,13204.00
2018-05-02T12:13:02.445Z,14736.00
2018-05-02T12:14:55.468Z,13380.00
2018-05-02T12:15:55.422Z,13692.00
2018-05-02T12:17:48.460Z,14620.00
2018-05-02T12:18:48.416Z,16512.00
2018-05-02T12:20:41.302Z,20128.00
2018-05-02T12:21:41.255Z,19968.00
2018-05-02T12:23:34.118Z,17216.00
2018-05-02T12:24:34.067Z,18432.00
2018-05-02T12:26:26.928Z,16288.00
2018-05-02T12:27:26.870Z,15740.00
2018-05-02T12:29:20.243Z,15384.00
2018-05-02T12:30:20.211Z,15752.00
2018-05-02T12:32:13.265Z,13816.00
2018-05-02T12:33:13.217Z,13376.00
2018-05-02T12:35:06.270Z,14232.00
2018-05-02T12:36:06.267Z,14524.00
2018-05-02T12:37:59.301Z,16224.00
2018-05-02T12:38:59.257Z,18368.00
2018-05-02T12:40:52.311Z,14560.00
2018-05-02T12:41:52.252Z,14612.00
2018-05-02T12:43:45.478Z,14360.00
2018-05-02T12:44:45.444Z,14272.00
2018-05-02T12:46:38.549Z,13848.00
2018-05-02T12:47:38.456Z,14756.00
2018-05-02T12:49:31.787Z,14016.00
2018-05-02T12:50:31.741Z,15216.00
2018-05-02T12:52:24.806Z,14944.00
2018-05-02T12:53:24.797Z,13492.00
2018-05-02T12:55:17.922Z,13372.00
2018-05-02T12:56:18.046Z,13136.00
2018-05-02T12:58:10.751Z,14292.00
2018-05-02T12:59:10.711Z,14028.00
2018-05-02T13:01:03.711Z,13348.00
2018-05-02T13:02:03.701Z,13000.00
2018-05-02T13:03:56.637Z,13396.00
2018-05-02T13:04:56.553Z,11592.00
2018-05-02T13:06:49.717Z,12236.00
2018-05-02T13:07:49.557Z,12844.00
2018-05-02T13:09:42.591Z,13900.00
2018-05-02T13:10:42.575Z,13184.00
2018-05-02T13:12:35.669Z,13336.00
2018-05-02T13:13:35.621Z,12704.00
2018-05-02T13:15:28.665Z,12820.00
2018-05-02T13:16:28.697Z,12344.00
2018-05-02T13:18:21.858Z,12536.00
2018-05-02T13:19:21.825Z,12764.00
2018-05-02T13:21:14.814Z,12164.00
2018-05-02T13:22:14.827Z,12348.00
2018-05-02T13:24:08.043Z,12208.00
2018-05-02T13:25:08.009Z,14432.00
2018-05-02T13:27:01.017Z,12520.00
2018-05-02T13:28:00.979Z,11492.00
2018-05-02T13:29:53.832Z,13004.00
2018-05-02T13:30:53.792Z,11944.00
2018-05-02T13:32:46.712Z,10796.00
2018-05-02T13:33:46.697Z,11596.00
2018-05-02T13:35:39.717Z,12916.00
2018-05-02T13:36:39.695Z,13268.00
2018-05-02T13:38:32.686Z,12124.00
2018-05-02T13:39:32.657Z,10904.00
2018-05-02T13:41:25.545Z,10632.00
2018-05-02T13:42:25.496Z,12640.00
2018-05-02T13:44:18.520Z,10932.00
2018-05-02T13:45:18.503Z,10900.00
2018-05-02T13:47:11.527Z,9156.00
2018-05-02T13:48:11.518Z,8812.00
2018-05-02T13:50:04.305Z,9340.00
2018-05-02T13:51:04.273Z,9032.00
2018-05-02T13:52:57.209Z,9696.00
2018-05-02T13:53:57.078Z,8936.00
2018-05-02T13:55:50.096Z,9152.00
2018-05-02T13:56:50.056Z,9308.00
2018-05-02T13:58:43.052Z,9820.00
2018-05-02T13:59:43.038Z,10400.00
2018-05-02T14:01:36.075Z,12004.00
2018-05-02T14:02:35.903Z,10444.00
2018-05-02T14:04:29.111Z,10636.00
2018-05-02T14:05:29.146Z,10472.00
2018-05-02T14:07:22.368Z,10500.00
2018-05-02T14:08:22.237Z,11100.00
2018-05-02T14:10:15.057Z,10572.00
2018-05-02T14:11:15.015Z,11012.00
2018-05-02T14:13:08.027Z,10552.00
2018-05-02T14:14:07.998Z,10044.00
2018-05-02T14:16:01.259Z,10240.00
2018-05-02T14:17:01.183Z,11200.00
2018-05-02T14:18:54.183Z,9808.00
2018-05-02T14:19:54.247Z,10980.00
2018-05-02T14:21:47.408Z,9812.00
2018-05-02T14:22:47.306Z,10436.00
2018-05-02T14:24:40.476Z,10544.00
2018-05-02T14:25:40.339Z,10520.00
2018-05-02T14:27:33.658Z,10652.00
2018-05-02T14:28:33.519Z,9996.00
2018-05-02T14:30:26.390Z,10084.00
2018-05-02T14:31:26.338Z,9920.00
2018-05-02T14:33:19.519Z,9740.00
2018-05-02T14:34:19.492Z,9504.00
2018-05-02T14:36:12.543Z,9896.00
2018-05-02T14:37:12.267Z,9512.00
2018-05-02T14:39:05.273Z,9348.00
2018-05-02T14:40:05.259Z,9448.00
2018-05-02T14:41:58.344Z,8828.00
2018-05-02T14:42:58.296Z,8948.00
2018-05-02T14:44:51.160Z,9060.00
2018-05-02T14:45:51.126Z,9220.00
2018-05-02T14:47:44.148Z,9832.00
2018-05-02T14:48:44.103Z,9596.00
2018-05-02T14:50:36.929Z,10100.00
2018-05-02T14:51:37.025Z,10032.00
2018-05-02T14:53:30.339Z,9516.00
2018-05-02T14:54:30.113Z,9724.00
2018-05-02T14:56:23.048Z,9004.00
2018-05-02T14:57:23.009Z,9176.00
2018-05-02T14:59:16.052Z,9540.00
2018-05-02T15:00:15.983Z,9652.00
2018-05-02T15:02:09.018Z,9424.00
2018-05-02T15:03:08.831Z,9668.00
2018-05-02T15:05:01.724Z,9768.00
2018-05-02T15:06:01.640Z,9668.00
2018-05-02T15:07:54.634Z,10024.00
2018-05-02T15:08:54.664Z,10076.00
2018-05-02T15:10:47.468Z,9952.00
2018-05-02T15:11:47.408Z,10128.00
2018-05-02T15:13:40.288Z,10648.00
2018-05-02T15:14:40.240Z,10428.00
2018-05-02T15:16:33.185Z,10200.00
2018-05-02T15:17:33.009Z,10296.00
2018-05-02T15:19:26.065Z,9764.00
2018-05-02T15:20:26.013Z,9804.00
2018-05-02T15:22:18.864Z,9636.00
2018-05-02T15:23:18.836Z,9252.00
2018-05-02T15:25:12.027Z,9420.00
2018-05-02T15:26:11.984Z,8584.00
2018-05-02T15:28:04.999Z,9656.00
2018-05-02T15:29:04.965Z,9044.00
2018-05-02T15:30:58.208Z,9476.00
2018-05-02T15:31:58.089Z,9640.00
2018-05-02T15:33:51.130Z,10040.00
2018-05-02T15:34:51.100Z,9024.00
2018-05-02T15:36:44.551Z,8544.00
2018-05-02T15:37:44.046Z,9340.00
2018-05-02T15:39:37.134Z,8960.00
2018-05-02T15:40:36.914Z,8616.00
2018-05-02T15:42:29.908Z,8340.00
2018-05-02T15:43:29.886Z,8372.00
2018-05-02T15:45:22.961Z,7616.00
2018-05-02T15:46:22.888Z,9048.00
2018-05-02T15:48:15.816Z,8156.00
2018-05-02T15:49:15.809Z,7484.00
2018-05-02T15:51:08.756Z,7776.00
2018-05-02T15:52:08.720Z,8416.00
2018-05-02T15:54:01.694Z,8320.00
2018-05-02T15:55:01.671Z,8756.00
2018-05-02T15:56:54.626Z,8116.00
2018-05-02T15:57:54.604Z,8520.00
2018-05-02T15:59:47.442Z,7280.00
2018-05-02T16:00:47.385Z,6544.00
2018-05-02T16:02:40.429Z,5988.00
2018-05-02T16:03:40.470Z,5304.00
2018-05-02T16:05:33.631Z,5072.00
2018-05-02T16:06:33.516Z,5220.00
2018-05-02T16:08:26.516Z,5688.00
2018-05-02T16:09:26.471Z,5852.00
2018-05-02T16:11:19.482Z,6156.00
2018-05-02T16:12:19.421Z,6736.00
2018-05-02T16:14:12.561Z,6060.00
2018-05-02T16:15:12.536Z,5868.00
2018-05-02T16:17:05.503Z,6396.00
2018-05-02T16:18:05.503Z,5564.00
2018-05-02T16:19:58.669Z,5752.00
2018-05-02T16:20:58.608Z,5896.00
2018-05-02T16:22:51.633Z,6104.00
2018-05-02T16:23:51.576Z,5440.00
2018-05-02T16:25:44.577Z,5360.00
2018-05-02T16:26:44.553Z,5340.00
2018-05-02T16:28:37.637Z,5088.00
2018-05-02T16:29:37.429Z,5932.00
2018-05-02T16:31:30.421Z,6380.00
2018-05-02T16:32:30.402Z,6748.00
2018-05-02T16:34:23.397Z,4480.00
2018-05-02T16:35:23.373Z,5624.00
2018-05-02T16:37:16.270Z,5216.00
2018-05-02T16:38:16.211Z,4936.00
2018-05-02T16:40:09.205Z,4776.00
2018-05-02T16:41:09.198Z,5168.00
2018-05-02T16:43:02.186Z,4096.00
2018-05-02T16:44:02.138Z,4212.00
2018-05-02T16:45:54.996Z,4124.00
2018-05-02T16:46:54.941Z,4188.00
2018-05-02T16:48:47.848Z,4436.00
2018-05-02T16:49:47.749Z,4624.00
2018-05-02T16:51:40.747Z,4276.00
2018-05-02T16:52:40.702Z,4408.00
2018-05-02T16:54:33.752Z,3500.00
2018-05-02T16:55:33.667Z,3516.00
2018-05-02T16:57:26.766Z,2956.00
2018-05-02T16:58:26.637Z,2864.00
2018-05-02T17:00:19.473Z,2672.00
2018-05-02T17:01:19.453Z,2652.00
2018-05-02T17:03:12.422Z,2556.00
2018-05-02T17:04:12.409Z,2568.00
2018-05-02T17:06:05.213Z,2508.00
2018-05-02T17:07:05.175Z,2488.00
2018-05-02T17:08:58.067Z,2364.00
2018-05-02T17:09:58.019Z,2320.00
2018-05-02T17:11:50.999Z,2240.00
2018-05-02T17:12:50.986Z,2236.00
2018-05-02T17:14:44.006Z,2240.00
2018-05-02T17:15:43.958Z,2220.00
2018-05-02T17:17:36.771Z,2196.00
2018-05-02T17:18:36.757Z,2048.00
2018-05-02T17:20:29.569Z,2040.00
2018-05-02T17:21:29.532Z,1940.00
2018-05-02T17:23:22.703Z,2020.00
2018-05-02T17:24:22.681Z,2192.00
2018-05-02T17:26:15.633Z,1912.00
2018-05-02T17:27:15.599Z,1960.00
2018-05-02T17:29:08.667Z,1832.00
2018-05-02T17:30:08.455Z,1876.00
2018-05-02T17:32:01.323Z,1808.00
2018-05-02T17:33:01.221Z,1908.00
2018-05-02T17:34:54.254Z,2144.00
2018-05-02T17:35:54.290Z,1888.00
2018-05-02T17:37:47.477Z,1744.00
2018-05-02T17:38:47.322Z,1920.00
2018-05-02T17:40:40.187Z,1564.00
2018-05-02T17:41:40.119Z,1624.00